Weather observations for the past three days for
Farmville
Metric (Imperial)
Date Time (edt) Wind (kph) Vis. (km) Weather Sky Cond. Temperature (ºC) Relative Humidity Wind Chill (°C) Heat Index (°C) Pressure Precipitation (cm)
Air Dwpt 6 hour altimeter (cm) sea level (mb) 1 hr 3 hr 6 hr
Max. Min.
08 16:15 SW 11 16.09 Fair CLR 22.6 3.9 30% 76 0.0
08 15:55 S 11 16.09 Fair CLR 22.5 4.1 30% 76.02 0.0
08 15:35 SW 6 16.09 Fair CLR 22.3 3.9 30% 76.02 0.0
08 15:15 S 13 16.09 Fair CLR 22.4 4 30% 76.05 0.0
08 14:55 S 11 16.09 Fair CLR 22 4.6 32% 76.1 0.0
08 14:35 S 19 16.09 Fair CLR 21.8 4.6 33% 76.1 0.0
08 14:15 S 19 G 28 16.09 Fair CLR 21.7 5.2 34% 76.12 0.0
08 13:55 SW 13 16.09 Fair CLR 21.6 5.2 21.7 7.5 34% 76.15 0.0
08 13:35 S 13 16.09 Fair CLR 20.8 4.4 34% 76.15 0.0
08 13:15 S 11 16.09 Fair CLR 20.7 3.9 33% 76.17 0.0
08 12:55 W 7 16.09 Fair CLR 20.3 4.6 36% 76.23 0.0
08 12:35 SW 9 16.09 Fair CLR 20 4.2 35% 76.23 0.0
08 12:15 S 9 16.09 Fair CLR 19.7 3.9 35% 76.28 0.0
08 11:55 SE 7 16.09 Fair CLR 19.1 3.3 35% 76.28 0.0
08 11:35 S 6 16.09 Fair CLR 18.8 3.8 37% 76.3 0.0
08 11:15 Calm 16.09 Fair CLR 18.4 4.5 40% 76.3 0.0
08 10:55 Calm 16.09 Fair CLR 17.5 4.6 43% 76.3 0.0
08 10:35 Calm 16.09 Fair CLR 18.3 5.9 44% 76.3 0.0
08 10:15 Calm 16.09 Fair CLR 17.1 6.2 49% 76.3 0.0
08 09:55 Calm 16.09 Fair CLR 16.5 6.3 51% 76.3 0.0
08 09:35 Calm 16.09 Fair CLR 14.9 7.5 61% 76.3 0.0
08 09:15 Calm 16.09 Fair CLR 12.5 9.9 84% 76.3 0.0
08 08:55 Calm 16.09 Fair CLR 10.8 9.4 91% 76.3 0.0
08 08:35 S 6 16.09 Fair CLR 9.7 9.1 96% 76.3 0.0
08 08:15 Calm 16.09 Fair CLR 8.5 8.4 99% 76.28 0.0
08 07:55 Calm 16.09 Fair CLR 7.3 7.3 8.1 4.2 100% 76.28 0.0
08 07:35 Calm 16.09 Fair CLR 6 6 100% 76.25 0.0
08 07:15 Calm 16.09 Fair CLR 5 5 100% 76.23 0.0
08 06:55 Calm 4.83 Fog/Mist CLR 4.6 4.6 100% 76.2 0.0
08 06:35 Calm 4.83 Fog/Mist CLR 5.1 5.1 100% 76.15 0.0
08 06:15 Calm 11.27 Partly Cloudy SCT002 4.7 4.7 100% 76.15 0.0
08 05:55 Calm 4.02 Fog/Mist SCT002 5 5 100% 76.12 0.0
08 05:35 Calm 4.83 Fog/Mist CLR 5.2 5.2 100% 76.12 0.0
08 05:15 Calm 16.09 Fair CLR 5.8 5.8 100% 76.1 0.0
08 04:55 Calm 11.27 Fair CLR 5.6 5.6 100% 76.1 0.0
08 04:35 Calm 8.05 Fog/Mist SCT001 5.9 5.9 100% 76.07 0.0
08 04:15 Calm 2.82 Fog/Mist BKN001 5.8 5.8 100% 76.07 0.0
08 03:55 Calm 0.40 Fog OVC001 6.9 6.9 100% 76.05 0.0
08 03:35 Calm 0.40 Fog OVC001 7.4 7.4 100% 76.05 0.0
08 03:15 Calm 0.40 Fog OVC001 7.6 7.6 100% 76.05 0.0
08 02:55 Calm 0.40 Fog OVC001 7.7 7.7 100% 76.02 0.0
08 02:35 Calm 0.40 Fog OVC001 8 8 100% 76.02 0.0
08 02:15 Calm 0.40 Fog OVC001 8.1 8.1 100% 76.02 0.0
08 01:55 Calm 0.40 Fog OVC001 8 8 13 7.6 100% 76.02 0.0
08 01:35 Calm 0.40 Fog OVC001 8 8 100% 76 0.0
08 01:15 Calm 0.24 Fog OVC001 8.2 8.2 100% 76 0.0
08 00:55 SW 6 0.80 Fog OVC001 8.3 8.3 100% 76 0.0
08 00:35 SW 6 0.24 Fog OVC003 9.3 9.3 100% 75.97 0.0
08 00:15 Calm 0.40 Fog OVC003 9 9 100% 75.97 0.0
07 23:55 Calm 0.80 Fog OVC003 8.1 8.1 100% 75.97 0.0
07 23:35 Calm 0.40 Fog OVC003 8.9 8.9 100% 75.97 0.0
07 23:15 Calm 0.40 Fog OVC005 9.1 9.1 100% 75.95 0.0
07 22:55 Calm 1.21 Fog/Mist BKN005 9.6 9.6 100% 75.95 0.0
07 22:35 Calm 2.82 Fog/Mist SCT005 9.9 9.9 100% 75.92 0.0
07 22:15 Calm 6.44 Fog/Mist CLR 10.5 10.5 100% 75.9 0.0
07 21:55 Calm 6.44 Fog/Mist CLR 10.7 10.7 100% 75.9 0.0
07 21:35 Calm 8.05 Fog/Mist CLR 11 11 100% 75.84 0.0
07 21:15 Calm 8.05 Fog/Mist SCT110 11.1 11.1 100% 75.84 0.0
07 20:55 Calm 11.27 Mostly Cloudy BKN110 11.6 11.6 100% 75.84 0.0
07 20:35 Calm 11.27 Mostly Cloudy BKN110 12 12 100% 75.84 0.0
07 20:15 Calm 11.27 Mostly Cloudy BKN100 12.3 12.2 99% 75.84 0.0
07 19:55 Calm 16.09 Overcast OVC100 13 12.5 15.1 12.3 97% 75.82 0.0 0.28
07 19:35 S 7 16.09 Overcast SCT028 OVC110 13.8 11.8 88% 75.79 0.0
07 19:15 Calm 16.09 Overcast BKN015 BKN028 OVC100 13.7 13 96% 75.79 0.0
07 18:55 Calm 16.09 Overcast BKN017 OVC030 13.7 12.2 91% 75.77 0.0
07 18:35 Calm 16.09 Overcast SCT017 OVC030 13.7 12.2 91% 75.77 0.0
07 18:15 Calm 16.09 Overcast BKN015 OVC080 14.1 11.8 86% 75.77 0.0
07 17:55 Calm 16.09 Overcast BKN015 OVC090 13.9 11.7 87% 75.77 0.0
07 17:35 Calm 16.09 Overcast SCT017 SCT044 OVC090 14.2 11.7 85% 75.77 0.0
07 17:15 Calm 16.09 Light Rain SCT015 BKN065 OVC075 13.8 11.6 87% 75.77 0.0
07 16:35 Calm 16.09 Overcast SCT046 OVC065 13.4 11.5 88% 75.77 0.0 0.13
07 16:15 Calm 4.83 Light Rain SCT039 SCT046 OVC055 12.6 11.7 94% 75.77 0.0 0.13
07 15:55 Calm 16.09 Light Rain SCT043 BKN055 OVC070 12.6 11.5 93% 75.82 0.0 0.15
07 15:35 Calm 4.83 Light Rain SCT043 BKN049 OVC055 12.9 10.6 86% 75.82 0.0 0.13
07 15:15 E 6 16.09 Light Rain SCT038 BKN044 OVC050 14 10 77% 75.84 0.0
07 14:55 NE 7 16.09 Light Rain SCT032 OVC040 14.6 8.8 68% 75.84 0.0
07 14:35 NE 9 16.09 Overcast OVC037 14.6 8.3 66% 75.84 0.0
07 14:15 NE 11 16.09 Overcast OVC035 14.6 8.8 68% 75.82 0.0
07 13:55 NE 15 16.09 Overcast SCT030 OVC035 14.6 9.6 15 13.5 72% 75.82 0.0
07 13:35 NE 15 16.09 Overcast OVC028 14.8 9.7 72% 75.84 0.0
07 13:15 NE 17 G 26 16.09 Overcast OVC026 14.3 10 76% 75.84 0.0
07 12:55 NE 17 16.09 Overcast OVC026 13.6 9.8 78% 75.87 0.0
07 12:35 N 17 G 26 16.09 Overcast BKN026 OVC033 13.7 9.9 78% 75.9 0.0
07 12:15 NE 17 16.09 Overcast SCT021 SCT028 OVC033 13.7 10.3 80% 75.9 0.0
07 11:55 NE 13 G 33 16.09 Overcast BKN015 OVC021 13.8 10.3 80% 75.9 0.0
07 11:35 N 15 16.09 Overcast BKN015 OVC030 14.4 12.4 88% 75.9 0.0
07 11:15 NE 17 16.09 Overcast OVC030 13.8 11.9 88% 75.87 0.0
07 10:55 N 19 16.09 Overcast OVC028 13.6 11.6 88% 75.87 0.0
07 10:35 N 11 16.09 Overcast OVC026 13.7 11.6 87% 75.9 0.0
07 10:15 N 11 16.09 Light Rain OVC026 14.4 11.6 83% 75.87 0.0
07 09:55 NE 11 16.09 Overcast OVC026 14.6 11.6 82% 75.9 0.0
07 09:35 NE 17 16.09 Overcast OVC026 14.6 11.6 82% 75.9 0.0
07 09:15 N 15 16.09 Overcast OVC026 14.5 11.9 85% 75.9 0.0
07 08:55 NE 15 16.09 Overcast OVC024 14.7 12.5 87% 75.84 0.0
07 08:35 NE 13 16.09 Overcast OVC022 14.5 12.7 89% 75.84 0.0
07 08:15 NE 11 16.09 Overcast OVC020 14 12.7 92% 75.87 0.0
07 07:55 NE 9 16.09 Light Drizzle SCT008 SCT013 OVC018 14.1 13.4 19.7 14.1 96% 75.87 0.0 0.1
07 07:35 NE 9 16.09 Light Rain OVC008 14.4 13.7 96% 75.87 0.0
07 07:15 NE 17 G 26 16.09 Light Rain OVC006 14.6 13.7 94% 75.84 0.0
07 06:55 NE 17 16.09 Light Drizzle OVC004 15.8 15.2 96% 75.79 0.0
07 06:35 N 20 G 28 16.09 Overcast OVC004 17.1 17 99% 75.77 0.0
07 06:15 N 15 16.09 Overcast BKN006 BKN010 OVC070 18.1 18.1 100% 75.74 0.0
07 05:55 NE 7 2.01 Fog/Mist SCT003 BKN075 OVC095 17.9 17.9 100% 75.72 0.0
07 05:35 Calm 11.27 Overcast SCT075 OVC095 18.4 18.4 100% 75.74 0.0
07 05:15 Calm 11.27 Overcast SCT010 SCT022 OVC095 18.5 18.5 100% 75.72 0.0
07 04:55 Calm 16.09 Light Rain BKN010 OVC019 18.8 18.6 99% 75.72 0.0 0.05 0.1
07 04:35 Calm 11.27 Light Rain OVC010 18.8 18.8 100% 75.74 0.0 0.03
07 04:15 Calm 16.09 Light Drizzle OVC010 18.9 18.9 100% 75.74 0.0
07 03:55 Calm 16.09 Rain OVC010 19 19 100% 75.72 0.0
07 03:35 Calm 11.27 Overcast BKN010 OVC110 19 19 100% 75.72 0.0
07 03:15 Calm 16.09 Overcast OVC110 19.2 19 99% 75.67 0.0
07 02:55 SW 6 16.09 Overcast OVC100 19.3 19.1 99% 75.69 0.0 0.05
07 02:35 S 13 16.09 Light Rain BKN100 OVC120 19.3 19 98% 75.69 0.0 0.05
07 02:15 SW 11 16.09 Light Rain OVC110 19.5 19.3 99% 75.72 0.0 0.03
07 01:55 SW 11 16.09 Light Rain SCT090 OVC120 19.8 19.1 21.7 19.8 96% 75.72 0.0
07 01:35 SW 6 16.09 Light Rain SCT075 OVC090 20.2 19 93% 75.72 0.0
07 01:15 S 11 16.09 Mostly Cloudy BKN080 BKN100 BKN120 20.2 19 93% 75.69 0.0
07 00:55 SW 6 16.09 Partly Cloudy SCT110 20.4 19.1 92% 75.72 0.0
07 00:35 SW 9 16.09 Mostly Cloudy BKN110 20.5 19.2 92% 75.79 0.0
07 00:15 SW 11 16.09 Light Rain OVC110 20.9 19.1 90% 75.79 0.0
06 23:55 SW 11 16.09 Light Rain BKN110 21.3 18.7 85% 75.82 0.0
06 23:35 S 15 16.09 Mostly Cloudy BKN120 21 18.5 86% 75.74 0.0
06 23:15 SW 7 16.09 Partly Cloudy SCT120 21.2 18.5 85% 75.82 0.0
06 22:55 SW 9 16.09 Partly Cloudy SCT120 21.2 18.5 85% 75.74 0.0
06 22:35 S 13 16.09 Fair CLR 20.8 18.6 87% 75.72 0.0
06 22:15 SW 11 16.09 Fair CLR 21 18.6 86% 75.74 0.0
06 21:55 S 7 16.09 Fair CLR 20.4 18.7 90% 75.77 0.0
06 21:35 S 7 16.09 Fair CLR 20.5 18.7 89% 75.79 0.0
06 21:15 SW 6 16.09 Fair CLR 20.8 18.7 88% 75.77 0.0
06 20:55 SW 7 16.09 Fair CLR 21 18.7 87% 75.77 0.0
06 20:35 SW 9 16.09 Fair CLR 21 18.6 86% 75.74 0.0
06 20:15 SW 9 16.09 Fair CLR 21.3 18.6 85% 75.74 0.0
06 19:55 S 11 16.09 Fair CLR 21.7 18.5 23.1 19.8 82% 75.74 0.0
06 19:35 SW 7 16.09 Fair CLR 22 18.5 81% 75.77 0.0
06 19:15 SW 13 16.09 Fair CLR 22 18.4 80% 75.74 0.0
06 18:55 SW 15 16.09 Fair CLR 22.3 18.2 78% 75.74 0.0
06 18:35 S 20 G 28 16.09 Fair CLR 23 18.3 75% 75.72 0.0
06 18:15 SW 13 G 26 16.09 Fair CLR 22.5 18 76% 75.74 0.0
06 17:55 SW 11 16.09 Fair CLR 22.6 17.8 74% 75.74 0.0
06 17:35 SW 17 G 35 16.09 Partly Cloudy SCT028 22.5 17.7 74% 75.72 0.0
06 17:15 SW 17 G 31 16.09 Partly Cloudy SCT028 23 17.9 73% 75.72 0.0
06 16:55 SW 15 G 30 16.09 Fair CLR 22.8 17.9 74% 75.74 0.0
06 16:35 SW 24 G 33 16.09 Partly Cloudy SCT025 22.5 17.7 74% 75.74 0.0
06 16:15 SW 11 16.09 Partly Cloudy SCT025 22.3 17.9 76% 75.74 0.0
06 15:55 SW 22 G 30 16.09 Fair CLR 21.8 17.7 78% 75.74 0.0
06 15:35 SW 13 G 28 16.09 Partly Cloudy SCT022 SCT090 21.7 17.9 79% 75.74 0.0
06 15:15 SW 26 G 41 16.09 Partly Cloudy SCT021 SCT100 SCT120 21.5 17.9 80% 75.67 0.0
06 14:55 S 24 G 35 16.09 Fair CLR 21.3 17.6 80% 75.72 0.0
06 14:35 SW 19 G 33 16.09 Fair CLR 21 17.4 80% 75.74 0.0
06 14:15 S 33 G 44 16.09 Mostly Cloudy and Breezy SCT030 SCT042 BKN090 20.2 17.4 84% 75.79 0.0
06 13:55 S 22 G 37 16.09 Light Drizzle SCT029 SCT045 BKN100 19.8 17.4 20 16.8 86% 75.84 0.0 0.13
06 13:35 S 19 G 30 16.09 Light Rain BKN100 19.4 17.2 87% 75.9 0.0
06 13:15 SW 22 G 30 16.09 Partly Cloudy SCT060 SCT100 19.8 16.7 82% 75.87 0.0
06 12:55 SW 17 16.09 Light Rain SCT018 SCT041 BKN120 19.5 16.9 85% 75.87 0.0
06 12:35 SW 13 G 26 16.09 Mostly Cloudy SCT018 SCT035 BKN120 19.5 16.9 85% 75.9 0.0
06 12:15 SW 17 G 26 16.09 Partly Cloudy SCT016 SCT039 SCT046 19.1 17.2 89% 75.9 0.0
06 11:55 S 22 G 39 16.09 Mostly Cloudy SCT016 SCT035 BKN100 18.5 16.8 90% 75.84 0.0 0.03
06 11:35 SW 17 G 33 16.09 Light Rain OVC110 18 16.6 92% 75.9 0.0 0.03
06 11:15 S 20 G 28 16.09 Light Rain OVC110 17.9 16.5 92% 75.9 0.0
06 10:55 S 15 16.09 Light Rain OVC110 17.8 16.2 90% 75.9 0.0 0.03 0.1
06 10:35 SW 13 16.09 Light Rain OVC110 18.1 16.1 88% 75.9 0.0
06 10:15 S 13 16.09 Light Rain SCT070 OVC100 18 15.9 88% 75.9 0.0
06 09:55 S 15 16.09 Overcast BKN070 OVC090 17.1 15.8 92% 75.9 0.0 0.08
06 09:35 SW 11 16.09 Light Rain OVC090 17 15.5 91% 75.9 0.0 0.05
06 09:15 SW 11 11.27 Light Rain SCT075 BKN090 OVC110 17 15.2 89% 75.92 0.0 0.03
06 08:55 SW 15 16.09 Rain BKN080 BKN085 OVC110 19 13.8 72% 75.9 0.0
06 08:35 SW 11 16.09 Mostly Cloudy BKN080 BKN120 19.1 13.6 71% 75.9 0.0
06 08:15 S 17 G 28 16.09 Partly Cloudy SCT080 19.1 13.7 71% 75.87 0.0
06 07:55 SW 17 16.09 Partly Cloudy SCT120 19 13.6 20.5 18.5 71% 75.87 0.0
06 07:35 SW 15 16.09 Mostly Cloudy SCT085 BKN120 18.7 13.5 72% 75.84 0.0
06 07:15 S 17 16.09 Mostly Cloudy SCT085 BKN110 18.6 13.5 72% 75.84 0.0
06 06:55 SW 17 16.09 Mostly Cloudy BKN120 18.6 13.5 72% 75.84 0.0
06 06:35 S 15 G 30 16.09 Overcast OVC110 18.7 13.5 72% 75.84 0.0
06 06:15 SW 20 G 26 16.09 Partly Cloudy SCT120 18.6 13.5 72% 75.84 0.0
06 05:55 S 20 G 30 16.09 Partly Cloudy SCT120 18.5 13.6 73% 75.84 0.0
06 05:35 S 15 16.09 Partly Cloudy SCT120 18.5 14 75% 75.87 0.0
06 05:15 S 15 16.09 Fair CLR 18.6 14.1 75% 75.87 0.0
06 04:55 S 19 16.09 Fair CLR 18.6 14.2 76% 75.84 0.0
06 04:35 S 17 16.09 Fair CLR 18.7 14.3 76% 75.87 0.0
06 04:15 S 19 16.09 Partly Cloudy SCT100 19 14.4 75% 75.87 0.0
06 03:55 S 15 G 28 16.09 Partly Cloudy SCT100 19.1 14.5 75% 75.9 0.0
06 03:35 S 20 G 30 16.09 Fair CLR 19.4 14.4 73% 75.9 0.0
06 03:15 S 17 G 30 16.09 Fair CLR 19.4 14.5 73% 75.9 0.0
06 02:55 S 22 G 35 16.09 Fair CLR 19.7 14.3 71% 75.9 0.0
06 02:15 S 26 16.09 Fair CLR 20 14.3 70% 75.9 0.0
06 01:55 S 24 G 35 16.09 Fair CLR 20.5 14.3 24.8 20.1 68% 75.92 0.0
06 01:35 S 24 G 31 16.09 Fair CLR 20.3 14.1 68% 75.92 0.0
06 01:15 S 26 16.09 Fair CLR 20.5 14 66% 75.92 0.0
06 00:55 S 26 16.09 Fair CLR 20.5 14 66% 75.92 0.0
06 00:35 S 20 G 28 16.09 Fair CLR 20.6 13.7 65% 75.95 0.0
06 00:15 S 17 G 26 16.09 Fair CLR 20.5 13.6 65% 75.95 0.0
05 23:55 S 19 16.09 Fair CLR 20.7 13.3 63% 75.95 0.0
05 23:35 S 17 16.09 Fair CLR 20.6 13 62% 75.92 0.0
05 23:15 S 13 16.09 Fair CLR 20.2 12.7 62% 75.95 0.0
05 22:55 S 15 16.09 Fair CLR 20.6 12.7 61% 75.95 0.0
05 22:35 S 15 16.09 Fair CLR 20.5 12.5 60% 75.95 0.0
05 22:15 S 15 16.09 Partly Cloudy SCT080 20.5 12.3 59% 75.95 0.0
05 21:55 S 11 16.09 Partly Cloudy SCT080 20.5 12 58% 75.92 0.0
05 21:35 S 9 16.09 Fair CLR 21.1 11.6 55% 75.92 0.0
05 21:15 S 13 16.09 Fair CLR 22.1 11.6 52% 75.92 0.0
05 20:55 S 13 16.09 Fair CLR 23 11.6 49% 75.9 0.0
05 20:35 S 15 16.09 Fair CLR 22.7 11.6 50% 75.87 0.0
05 20:15 S 13 16.09 Fair CLR 23.2 11.4 48% 75.87 0.0
05 19:55 S 15 16.09 Partly Cloudy SCT080 24.9 11 29.6 24.9 42% 26 75.87 0.0
05 19:35 S 22 G 35 16.09 Partly Cloudy SCT080 25.8 10.8 39% 26 75.84 0.0
05 19:15 S 28 G 33 16.09 Partly Cloudy SCT080 26.1 10.9 39% 26 75.84 0.0
05 18:55 S 20 16.09 Fair CLR 26.6 10.8 37% 26 75.87 0.0
05 18:35 S 22 G 37 16.09 Fair CLR 27.6 10.7 35% 27 75.87 0.0
05 18:15 S 24 16.09 Fair CLR 27.2 10 34% 27 75.87 0.0
05 17:55 S 31 G 43 16.09 Fair CLR 27.2 9.2 32% 27 75.84 0.0
05 17:35 S 30 G 46 16.09 Fair CLR 28 9.1 31% 27 75.84 0.0
05 17:15 S 37 G 50 16.09 Fair and Breezy CLR 28.3 9.4 31% 27 75.84 0.0
05 16:55 SW 20 G 37 16.09 Fair CLR 28.1 10.3 33% 27 75.87 0.0
Date Time (edt) Wind (kph) Vis. (km) Weather Sky Cond. Air Dwpt Max. Min. Relative Humidity Wind Chill (°C) Heat Index (°C) altimeter (cm) sea level (mb) 1 hr 3 hr 6 hr
6 hour
Temperature (ºC) Pressure Precipitation (cm)